createdAt,value
2018-11-02T00:00:11.123Z,11
2018-11-02T00:01:19.684Z,11.04
2018-11-02T00:02:28.583Z,11
2018-11-02T00:03:37.505Z,11.04
2018-11-02T00:04:46.418Z,10.97
2018-11-02T00:05:55.061Z,11
2018-11-02T00:07:03.713Z,11
2018-11-02T00:08:12.341Z,11
2018-11-02T00:09:21.000Z,10.97
2018-11-02T00:10:29.913Z,11
2018-11-02T00:11:38.559Z,11.01
2018-11-02T00:12:47.196Z,11
2018-11-02T00:13:55.830Z,11
2018-11-02T00:15:04.473Z,11.01
2018-11-02T00:16:13.106Z,11.02
2018-11-02T00:17:22.022Z,11.01
2018-11-02T00:18:30.926Z,11
2018-11-02T00:19:39.574Z,11.01
2018-11-02T00:20:48.468Z,11.01
2018-11-02T00:21:57.109Z,11.07
2018-11-02T00:23:05.762Z,11.02
2018-11-02T00:24:14.402Z,11.04
2018-11-02T00:25:23.042Z,11.08
2018-11-02T00:26:31.674Z,11.13
2018-11-02T00:27:40.321Z,11.08
2018-11-02T00:28:49.219Z,11.05
2018-11-02T00:29:58.212Z,11.05
2018-11-02T00:31:07.352Z,11.1
2018-11-02T00:32:16.265Z,11.16
2018-11-02T00:33:24.903Z,11.05
2018-11-02T00:34:33.545Z,11.04
2018-11-02T00:35:42.175Z,11.1
2018-11-02T00:36:50.814Z,11.08
2018-11-02T00:37:59.452Z,11.04
2018-11-02T00:39:08.102Z,11.04
2018-11-02T00:40:16.747Z,11.07
2018-11-02T00:41:25.376Z,11.07
2018-11-02T00:42:34.015Z,11.08
2018-11-02T00:43:42.663Z,11.01
2018-11-02T00:44:51.305Z,11
2018-11-02T00:46:00.203Z,11.08
2018-11-02T00:47:08.847Z,11.07
2018-11-02T00:48:17.479Z,11.05
2018-11-02T00:49:26.125Z,11.02
2018-11-02T00:50:34.783Z,11.08
2018-11-02T00:51:43.410Z,11.1
2018-11-02T00:52:52.041Z,11.08
2018-11-02T00:54:00.958Z,11.08
2018-11-02T00:55:10.237Z,11.05
2018-11-02T00:56:19.179Z,11.18
2018-11-02T00:57:27.806Z,11.12
2018-11-02T00:58:36.457Z,11.12
2018-11-02T00:59:45.099Z,11.12
2018-11-02T01:00:54.023Z,11.12
2018-11-02T01:02:02.664Z,11.16
2018-11-02T01:03:11.357Z,11.15
2018-11-02T01:04:19.988Z,11.13
2018-11-02T01:05:28.623Z,11.22
2018-11-02T01:06:37.270Z,11.22
2018-11-02T01:07:45.903Z,11.22
2018-11-02T01:08:54.547Z,11.2
2018-11-02T01:10:03.184Z,11.23
2018-11-02T01:11:11.831Z,11.23
2018-11-02T01:12:20.465Z,11.22
2018-11-02T01:13:29.140Z,11.19
2018-11-02T01:14:37.757Z,11.19
2018-11-02T01:15:46.390Z,11.33
2018-11-02T01:16:55.029Z,11.25
2018-11-02T01:18:03.671Z,11.2
2018-11-02T01:19:12.309Z,11.27
2018-11-02T01:20:20.947Z,11.22
2018-11-02T01:21:29.589Z,11.3
2018-11-02T01:22:38.503Z,11.27
2018-11-02T01:23:47.145Z,11.26
2018-11-02T01:24:55.803Z,11.19
2018-11-02T01:26:04.424Z,11.27
2018-11-02T01:27:13.067Z,11.22
2018-11-02T01:28:21.722Z,11.31
2018-11-02T01:29:30.340Z,11.22
2018-11-02T01:30:38.984Z,11.23
2018-11-02T01:31:47.623Z,11.22
2018-11-02T01:32:56.267Z,11.1
2018-11-02T01:34:05.494Z,11.16
2018-11-02T01:35:14.715Z,11.12
2018-11-02T01:36:23.971Z,11.08
2018-11-02T01:37:32.615Z,11.04
2018-11-02T01:38:41.274Z,11
2018-11-02T01:39:50.169Z,10.9
2018-11-02T01:40:58.807Z,10.94
2018-11-02T01:42:07.447Z,10.87
2018-11-02T01:43:16.096Z,10.86
2018-11-02T01:44:24.738Z,10.77
2018-11-02T01:45:33.361Z,10.75
2018-11-02T01:46:42.003Z,10.8
2018-11-02T01:47:50.647Z,10.68
2018-11-02T01:48:59.556Z,10.69
2018-11-02T01:50:08.199Z,10.61
2018-11-02T01:51:16.837Z,10.58
2018-11-02T01:52:25.482Z,10.51
2018-11-02T01:53:34.120Z,10.55
2018-11-02T01:54:42.761Z,10.46
2018-11-02T01:55:51.398Z,10.42
2018-11-02T01:57:00.033Z,10.41
2018-11-02T01:58:08.684Z,10.34
2018-11-02T01:59:17.589Z,10.39
2018-11-02T02:00:26.227Z,10.39
2018-11-02T02:01:34.861Z,10.38
2018-11-02T02:02:43.507Z,10.49
2018-11-02T02:03:52.152Z,10.48
2018-11-02T02:05:00.788Z,10.58
2018-11-02T02:06:09.424Z,10.65
2018-11-02T02:07:18.066Z,10.59
2018-11-02T02:08:26.704Z,10.65
2018-11-02T02:09:35.350Z,10.69
2018-11-02T02:10:44.473Z,10.68
2018-11-02T02:11:53.116Z,10.72
2018-11-02T02:13:02.045Z,10.75
2018-11-02T02:14:11.391Z,10.77
2018-11-02T02:15:20.032Z,10.9
2018-11-02T02:16:28.686Z,10.86
2018-11-02T02:17:37.310Z,10.94
2018-11-02T02:18:46.217Z,10.98
2018-11-02T02:19:55.140Z,10.92
2018-11-02T02:21:04.067Z,10.92
2018-11-02T02:22:13.252Z,10.89
2018-11-02T02:23:22.429Z,10.9
2018-11-02T02:24:31.079Z,10.9
2018-11-02T02:25:39.711Z,10.89
2018-11-02T02:26:48.352Z,10.95
2018-11-02T02:27:57.544Z,10.86
2018-11-02T02:29:06.195Z,10.86
2018-11-02T02:30:15.125Z,10.79
2018-11-02T02:31:24.311Z,10.82
2018-11-02T02:32:33.228Z,10.77
2018-11-02T02:33:41.873Z,10.77
2018-11-02T02:34:50.795Z,10.77
2018-11-02T02:35:59.692Z,10.8
2018-11-02T02:37:08.337Z,10.77
2018-11-02T02:38:16.967Z,10.82
2018-11-02T02:39:25.617Z,10.9
2018-11-02T02:40:34.253Z,10.98
2018-11-02T02:41:42.898Z,10.9
2018-11-02T02:42:51.538Z,10.92
2018-11-02T02:44:00.471Z,10.89
2018-11-02T02:45:09.397Z,11.01
2018-11-02T02:46:18.042Z,11.01
2018-11-02T02:47:26.949Z,10.97
2018-11-02T02:48:35.592Z,11.02
2018-11-02T02:49:44.241Z,11.02
2018-11-02T02:50:52.884Z,11.04
2018-11-02T02:52:01.526Z,11.08
2018-11-02T02:53:10.159Z,11.12
2018-11-02T02:54:18.805Z,11.04
2018-11-02T02:55:27.711Z,11.04
2018-11-02T02:56:36.628Z,11.05
2018-11-02T02:57:45.257Z,11.04
2018-11-02T02:58:53.906Z,11.1
2018-11-02T03:00:02.541Z,11.08
2018-11-02T03:01:11.197Z,11.13
2018-11-02T03:02:19.830Z,11.13
2018-11-02T03:03:28.742Z,11.13
2018-11-02T03:04:37.426Z,11.16
2018-11-02T03:05:46.029Z,11.12
2018-11-02T03:06:54.670Z,11.1
2018-11-02T03:08:03.310Z,11.22
2018-11-02T03:09:12.226Z,11.22
2018-11-02T03:10:21.609Z,11.22
2018-11-02T03:11:30.138Z,11.18
2018-11-02T03:12:38.778Z,11.27
2018-11-02T03:13:47.418Z,11.25
2018-11-02T03:14:56.320Z,11.3
2018-11-02T03:16:04.964Z,11.27
2018-11-02T03:17:13.607Z,11.19
2018-11-02T03:18:22.285Z,11.22
2018-11-02T03:19:31.488Z,11.27
2018-11-02T03:20:40.137Z,11.22
2018-11-02T03:21:49.045Z,11.3
2018-11-02T03:22:57.686Z,11.19
2018-11-02T03:24:06.331Z,11.16
2018-11-02T03:25:14.974Z,11.12
2018-11-02T03:26:23.614Z,11.12
2018-11-02T03:27:32.257Z,11.16
2018-11-02T03:28:40.901Z,11.12
2018-11-02T03:29:49.536Z,11.12
2018-11-02T03:30:58.447Z,11.1
2018-11-02T03:32:07.646Z,11.12
2018-11-02T03:33:16.296Z,11.08
2018-11-02T03:34:24.932Z,11.16
2018-11-02T03:35:33.851Z,11.15
2018-11-02T03:36:42.761Z,11.22
2018-11-02T03:37:51.952Z,11.18
2018-11-02T03:39:00.587Z,11.22
2018-11-02T03:40:09.235Z,11.22
2018-11-02T03:41:17.872Z,11.26
2018-11-02T03:42:26.517Z,11.31
2018-11-02T03:43:35.161Z,11.31
2018-11-02T03:44:44.098Z,11.31
2018-11-02T03:45:52.737Z,11.3
2018-11-02T03:47:01.378Z,11.3
2018-11-02T03:48:10.024Z,11.31
2018-11-02T03:49:18.664Z,11.33
2018-11-02T03:50:27.356Z,11.34
2018-11-02T03:51:36.263Z,11.31
2018-11-02T03:52:44.913Z,11.31
2018-11-02T03:53:53.556Z,11.3
2018-11-02T03:55:03.477Z,11.26
2018-11-02T03:56:12.928Z,11.31
2018-11-02T03:57:21.577Z,11.3
2018-11-02T03:58:30.215Z,11.31
2018-11-02T03:59:38.931Z,11.34
2018-11-02T04:00:48.447Z,11.34
2018-11-02T04:01:57.075Z,11.33
2018-11-02T04:03:05.715Z,11.23
2018-11-02T04:04:14.365Z,11.27
2018-11-02T04:05:23.012Z,11.16
2018-11-02T04:06:31.646Z,11.33
2018-11-02T04:07:40.284Z,11.3
2018-11-02T04:08:48.918Z,11.26
2018-11-02T04:09:57.555Z,11.26
2018-11-02T04:11:06.475Z,11.3
2018-11-02T04:12:15.148Z,11.26
2018-11-02T04:13:23.752Z,11.3
2018-11-02T04:14:32.394Z,11.22
2018-11-02T04:15:41.353Z,11.18
2018-11-02T04:16:49.990Z,11.22
2018-11-02T04:17:58.898Z,11.2
2018-11-02T04:19:07.810Z,11.22
2018-11-02T04:20:16.729Z,11.22
2018-11-02T04:21:25.368Z,11.23
2018-11-02T04:22:34.020Z,11.22
2018-11-02T04:23:42.664Z,11.22
2018-11-02T04:24:51.846Z,11.2
2018-11-02T04:26:00.475Z,11.31
2018-11-02T04:27:09.114Z,11.26
2018-11-02T04:28:17.761Z,11.27
2018-11-02T04:29:26.404Z,11.26
2018-11-02T04:30:35.044Z,11.31
2018-11-02T04:31:43.684Z,11.25
2018-11-02T04:32:52.328Z,11.2
2018-11-02T04:34:00.965Z,11.19
2018-11-02T04:35:09.606Z,11.26
2018-11-02T04:36:18.265Z,11.26
2018-11-02T04:37:27.171Z,11.34
2018-11-02T04:38:35.809Z,11.3
2018-11-02T04:39:44.454Z,11.23
2018-11-02T04:40:53.089Z,11.35
2018-11-02T04:42:01.735Z,11.2
2018-11-02T04:43:10.372Z,11.25
2018-11-02T04:44:19.015Z,11.3
2018-11-02T04:45:27.655Z,11.19
2018-11-02T04:46:36.290Z,11.27
2018-11-02T04:47:44.939Z,11.2
2018-11-02T04:48:53.576Z,11.27
2018-11-02T04:50:02.484Z,11.26
2018-11-02T04:51:11.712Z,11.26
2018-11-02T04:52:20.328Z,11.31
2018-11-02T04:53:29.218Z,11.19
2018-11-02T04:54:37.866Z,11.3
2018-11-02T04:55:46.782Z,11.2
2018-11-02T04:56:55.690Z,11.25
2018-11-02T04:58:04.623Z,11.2
2018-11-02T04:59:13.249Z,11.23
2018-11-02T05:00:21.897Z,11.18
2018-11-02T05:01:30.527Z,11.15
2018-11-02T05:02:39.167Z,11.13
2018-11-02T05:03:47.857Z,11.13
2018-11-02T05:04:56.780Z,11.13
2018-11-02T05:06:05.419Z,11.16
2018-11-02T05:07:14.060Z,11.01
2018-11-02T05:08:22.696Z,10.98
2018-11-02T05:09:31.343Z,11.01
2018-11-02T05:10:39.978Z,11.01
2018-11-02T05:11:48.620Z,10.95
2018-11-02T05:12:57.265Z,10.9
2018-11-02T05:14:05.912Z,10.89
2018-11-02T05:15:14.552Z,10.86
2018-11-02T05:16:23.192Z,10.84
2018-11-02T05:17:31.845Z,10.77
2018-11-02T05:18:40.468Z,10.76
2018-11-02T05:19:49.405Z,10.72
2018-11-02T05:20:58.356Z,10.72
2018-11-02T05:22:07.297Z,10.67
2018-11-02T05:23:15.957Z,10.68
2018-11-02T05:24:24.559Z,10.68
2018-11-02T05:25:33.737Z,10.58
2018-11-02T05:26:42.683Z,10.71
2018-11-02T05:27:51.313Z,10.64
2018-11-02T05:28:59.970Z,10.62
2018-11-02T05:30:08.611Z,10.57
2018-11-02T05:31:17.256Z,10.62
2018-11-02T05:32:26.172Z,10.64
2018-11-02T05:33:34.811Z,10.61
2018-11-02T05:34:43.453Z,10.67
2018-11-02T05:35:52.095Z,10.55
2018-11-02T05:37:01.019Z,10.51
2018-11-02T05:38:09.672Z,10.51
2018-11-02T05:39:18.314Z,10.53
2018-11-02T05:40:27.505Z,10.49
2018-11-02T05:41:36.419Z,10.51
2018-11-02T05:42:45.050Z,10.53
2018-11-02T05:43:53.692Z,10.49
2018-11-02T05:45:02.331Z,10.43
2018-11-02T05:46:10.979Z,10.53
2018-11-02T05:47:20.058Z,10.49
2018-11-02T05:48:28.630Z,10.49
2018-11-02T05:49:37.265Z,10.46
2018-11-02T05:50:45.913Z,10.51
2018-11-02T05:51:54.551Z,10.48
2018-11-02T05:53:03.190Z,10.51
2018-11-02T05:54:11.972Z,10.49
2018-11-02T05:55:20.457Z,10.48
2018-11-02T05:56:29.108Z,10.48
2018-11-02T05:57:37.743Z,10.57
2018-11-02T05:58:46.388Z,10.46
2018-11-02T05:59:55.311Z,10.55
2018-11-02T06:01:03.932Z,10.45
2018-11-02T06:02:12.884Z,10.46
2018-11-02T06:03:21.531Z,10.46
2018-11-02T06:04:30.170Z,10.46
2018-11-02T06:05:38.814Z,10.46
2018-11-02T06:06:47.457Z,10.51
2018-11-02T06:07:56.178Z,10.57
2018-11-02T06:09:04.739Z,10.49
2018-11-02T06:10:13.373Z,10.53
2018-11-02T06:11:22.014Z,10.39
2018-11-02T06:12:30.933Z,10.45
2018-11-02T06:13:39.576Z,10.42
2018-11-02T06:14:48.220Z,10.43
2018-11-02T06:15:56.863Z,10.45
2018-11-02T06:17:05.767Z,10.39
2018-11-02T06:18:14.399Z,10.42
2018-11-02T06:19:23.042Z,10.45
2018-11-02T06:20:31.685Z,10.41
2018-11-02T06:21:40.315Z,10.36
2018-11-02T06:22:48.949Z,10.39
2018-11-02T06:23:57.594Z,10.36
2018-11-02T06:25:06.236Z,10.39
2018-11-02T06:26:14.874Z,10.42
2018-11-02T06:27:23.792Z,10.36
2018-11-02T06:28:32.702Z,10.34
2018-11-02T06:29:41.368Z,10.34
2018-11-02T06:30:49.987Z,10.42
2018-11-02T06:31:58.696Z,10.36
2018-11-02T06:33:07.629Z,10.34
2018-11-02T06:34:16.268Z,10.34
2018-11-02T06:35:24.904Z,10.39
2018-11-02T06:36:33.550Z,10.41
2018-11-02T06:37:42.183Z,10.34
2018-11-02T06:38:50.882Z,10.39
2018-11-02T06:39:59.464Z,10.34
2018-11-02T06:41:08.109Z,10.34
2018-11-02T06:42:16.744Z,10.41
2018-11-02T06:43:25.653Z,10.36
2018-11-02T06:44:34.351Z,10.38
2018-11-02T06:45:42.940Z,10.41
2018-11-02T06:46:51.574Z,10.41
2018-11-02T06:48:00.221Z,10.41
2018-11-02T06:49:08.859Z,10.43
2018-11-02T06:50:17.496Z,10.45
2018-11-02T06:51:26.143Z,10.45
2018-11-02T06:52:34.782Z,10.34
2018-11-02T06:53:43.421Z,10.39
2018-11-02T06:54:52.055Z,10.36
2018-11-02T06:56:00.699Z,10.31
2018-11-02T06:57:09.338Z,10.34
2018-11-02T06:58:17.979Z,10.38
2018-11-02T06:59:26.823Z,10.38
2018-11-02T07:00:35.452Z,10.36
2018-11-02T07:01:43.897Z,10.27
2018-11-02T07:02:52.540Z,10.39
2018-11-02T07:04:01.172Z,10.34
2018-11-02T07:05:09.813Z,10.39
2018-11-02T07:06:18.460Z,10.39
2018-11-02T07:07:27.234Z,10.41
2018-11-02T07:08:35.792Z,10.34
2018-11-02T07:09:44.375Z,10.38
2018-11-02T07:10:53.019Z,10.33
2018-11-02T07:12:01.652Z,10.38
2018-11-02T07:13:10.305Z,10.38
2018-11-02T07:14:18.936Z,10.3
2018-11-02T07:15:27.849Z,10.36
2018-11-02T07:16:36.487Z,10.39
2018-11-02T07:17:45.435Z,10.41
2018-11-02T07:18:54.066Z,10.39
2018-11-02T07:20:02.708Z,10.34
2018-11-02T07:21:11.348Z,10.39
2018-11-02T07:22:19.998Z,10.38
2018-11-02T07:23:28.633Z,10.36
2018-11-02T07:24:37.549Z,10.36
2018-11-02T07:25:46.454Z,10.34
2018-11-02T07:26:55.364Z,10.41
2018-11-02T07:28:04.019Z,10.31
2018-11-02T07:29:12.926Z,10.36
2018-11-02T07:30:21.572Z,10.33
2018-11-02T07:31:30.202Z,10.31
2018-11-02T07:32:38.851Z,10.34
2018-11-02T07:33:47.487Z,10.39
2018-11-02T07:34:56.133Z,10.34
2018-11-02T07:36:07.197Z,10.45
2018-11-02T07:37:16.120Z,10.43
2018-11-02T07:38:24.757Z,10.39
2018-11-02T07:39:33.401Z,10.41
2018-11-02T07:40:42.036Z,10.43
2018-11-02T07:41:50.683Z,10.41
2018-11-02T07:42:59.327Z,10.49
2018-11-02T07:44:08.254Z,10.43
2018-11-02T07:45:16.913Z,10.45
2018-11-02T07:46:25.523Z,10.39
2018-11-02T07:47:34.282Z,10.39
2018-11-02T07:48:42.807Z,10.41
2018-11-02T07:49:51.457Z,10.39
2018-11-02T07:51:00.085Z,10.39
2018-11-02T07:52:08.737Z,10.39
2018-11-02T07:53:17.638Z,10.41
2018-11-02T07:54:26.289Z,10.38
2018-11-02T07:55:34.917Z,10.43
2018-11-02T07:56:43.560Z,10.33
2018-11-02T07:57:52.196Z,10.42
2018-11-02T07:59:00.843Z,10.48
2018-11-02T08:00:09.482Z,10.42
2018-11-02T08:01:18.119Z,10.46
2018-11-02T08:02:26.761Z,10.43
2018-11-02T08:03:35.404Z,10.46
2018-11-02T08:04:44.299Z,10.41
2018-11-02T08:05:52.942Z,10.51
2018-11-02T08:07:01.578Z,10.48
2018-11-02T08:08:10.225Z,10.49
2018-11-02T08:09:18.857Z,10.48
2018-11-02T08:10:27.502Z,10.49
2018-11-02T08:11:36.379Z,10.48
2018-11-02T08:12:45.388Z,10.48
2018-11-02T08:13:54.180Z,10.49
2018-11-02T08:15:02.999Z,10.51
2018-11-02T08:16:11.786Z,10.46
2018-11-02T08:17:20.460Z,10.58
2018-11-02T08:18:29.365Z,10.43
2018-11-02T08:19:37.997Z,10.48
2018-11-02T08:20:46.635Z,10.59
2018-11-02T08:21:55.276Z,10.57
2018-11-02T08:23:03.926Z,10.58
2018-11-02T08:24:12.823Z,10.65
2018-11-02T08:25:21.468Z,10.68
2018-11-02T08:26:30.098Z,10.62
2018-11-02T08:27:38.742Z,10.71
2018-11-02T08:28:47.385Z,10.8
2018-11-02T08:29:56.021Z,10.72
2018-11-02T08:31:04.652Z,10.92
2018-11-02T08:32:13.375Z,10.86
2018-11-02T08:33:21.940Z,10.89
2018-11-02T08:34:30.581Z,10.87
2018-11-02T08:35:39.215Z,10.87
2018-11-02T08:36:47.855Z,10.94
2018-11-02T08:37:56.768Z,10.86
2018-11-02T08:39:05.412Z,10.83
2018-11-02T08:40:14.324Z,10.79
2018-11-02T08:41:22.963Z,10.89
2018-11-02T08:42:31.609Z,10.87
2018-11-02T08:43:40.244Z,10.79
2018-11-02T08:44:48.892Z,10.89
2018-11-02T08:45:57.526Z,10.9
2018-11-02T08:47:06.444Z,10.86
2018-11-02T08:48:15.342Z,10.86
2018-11-02T08:49:23.994Z,10.89
2018-11-02T08:50:32.624Z,10.87
2018-11-02T08:51:41.267Z,10.84
2018-11-02T08:52:49.905Z,10.94
2018-11-02T08:53:58.555Z,10.84
2018-11-02T08:55:07.198Z,10.9
2018-11-02T08:56:16.100Z,10.84
2018-11-02T08:57:24.744Z,10.89
2018-11-02T08:58:34.198Z,10.92
2018-11-02T08:59:42.839Z,11.07
2018-11-02T09:00:51.353Z,11.08
2018-11-02T09:01:59.994Z,11.25
2018-11-02T09:03:08.630Z,11.33
2018-11-02T09:04:17.273Z,11.33
2018-11-02T09:05:25.912Z,11.4
2018-11-02T09:06:34.554Z,11.34
2018-11-02T09:07:43.192Z,11.41
2018-11-02T09:08:51.844Z,11.34
2018-11-02T09:10:00.483Z,11.37
2018-11-02T09:11:09.153Z,11.41
2018-11-02T09:12:17.857Z,11.37
2018-11-02T09:13:26.409Z,11.31
2018-11-02T09:14:35.051Z,11.3
2018-11-02T09:15:43.994Z,11.3
2018-11-02T09:16:52.900Z,11.27
2018-11-02T09:18:02.073Z,11.26
2018-11-02T09:19:10.740Z,11.2
2018-11-02T09:20:19.654Z,11.1
2018-11-02T09:21:28.605Z,11.05
2018-11-02T09:22:37.234Z,11.02
2018-11-02T09:23:46.443Z,11.01
2018-11-02T09:24:55.096Z,11.01
2018-11-02T09:26:04.285Z,10.98
2018-11-02T09:27:13.395Z,11
2018-11-02T09:28:22.840Z,10.98
2018-11-02T09:29:31.933Z,10.95
2018-11-02T09:30:40.835Z,10.95
2018-11-02T09:31:49.997Z,10.97
2018-11-02T09:32:58.747Z,10.89
2018-11-02T09:34:07.388Z,10.94
2018-11-02T09:35:16.026Z,10.8
2018-11-02T09:36:25.229Z,10.72
2018-11-02T09:37:33.878Z,10.76
2018-11-02T09:38:42.508Z,10.77
2018-11-02T09:39:51.149Z,10.83
2018-11-02T09:41:00.087Z,10.89
2018-11-02T09:42:08.730Z,10.9
2018-11-02T09:43:17.366Z,10.9
2018-11-02T09:44:26.008Z,10.98
2018-11-02T09:45:34.653Z,11.1
2018-11-02T09:46:43.292Z,11.19
2018-11-02T09:47:51.935Z,11.04
2018-11-02T09:49:00.572Z,11.18
2018-11-02T09:50:09.226Z,11.15
2018-11-02T09:51:17.897Z,11.16
2018-11-02T09:52:26.519Z,11.18
2018-11-02T09:53:35.163Z,11.12
2018-11-02T09:54:43.807Z,11.15
2018-11-02T09:55:52.448Z,11.22
2018-11-02T09:57:01.091Z,11.25
2018-11-02T09:58:09.738Z,11.26
2018-11-02T09:59:18.369Z,11.27
2018-11-02T10:00:27.018Z,11.26
2018-11-02T10:01:35.654Z,11.31
2018-11-02T10:02:44.308Z,11.25
2018-11-02T10:03:52.945Z,11.25
2018-11-02T10:05:01.871Z,11.31
2018-11-02T10:06:10.794Z,11.31
2018-11-02T10:07:19.473Z,11.26
2018-11-02T10:08:28.177Z,11.31
2018-11-02T10:09:36.747Z,11.27
2018-11-02T10:10:45.386Z,11.31
2018-11-02T10:11:54.030Z,11.27
2018-11-02T10:13:02.682Z,11.31
2018-11-02T10:14:11.320Z,11.33
2018-11-02T10:15:20.236Z,11.3
2018-11-02T10:16:28.870Z,11.33
2018-11-02T10:17:37.796Z,11.22
2018-11-02T10:18:46.432Z,11.33
2018-11-02T10:19:55.082Z,11.31
2018-11-02T10:21:03.715Z,11.38
2018-11-02T10:22:12.366Z,11.43
2018-11-02T10:23:21.031Z,11.4
2018-11-02T10:24:29.929Z,11.37
2018-11-02T10:25:38.561Z,11.34
2018-11-02T10:26:47.202Z,11.41
2018-11-02T10:27:55.849Z,11.35
2018-11-02T10:29:04.495Z,11.38
2018-11-02T10:30:13.139Z,11.35
2018-11-02T10:31:21.772Z,11.43
2018-11-02T10:32:30.418Z,11.38
2018-11-02T10:33:39.055Z,11.4
2018-11-02T10:34:47.707Z,11.38
2018-11-02T10:35:56.781Z,11.48
2018-11-02T10:37:05.872Z,11.45
2018-11-02T10:38:14.508Z,11.44
2018-11-02T10:39:23.181Z,11.49
2018-11-02T10:40:32.190Z,11.41
2018-11-02T10:41:40.832Z,11.52
2018-11-02T10:42:49.470Z,11.48
2018-11-02T10:43:58.118Z,11.53
2018-11-02T10:45:06.966Z,11.58
2018-11-02T10:46:15.396Z,11.7
2018-11-02T10:47:24.309Z,11.76
2018-11-02T10:48:32.951Z,11.85
2018-11-02T10:49:41.881Z,11.73
2018-11-02T10:50:50.519Z,11.86
2018-11-02T10:51:59.167Z,11.83
2018-11-02T10:53:07.828Z,11.86
2018-11-02T10:54:16.498Z,11.8
2018-11-02T10:55:25.391Z,11.73
2018-11-02T10:56:34.089Z,11.74
2018-11-02T10:57:42.672Z,11.62
2018-11-02T10:58:51.313Z,11.49
2018-11-02T10:59:59.952Z,11.53
2018-11-02T11:01:08.844Z,11.52
2018-11-02T11:02:17.519Z,11.56
2018-11-02T11:03:26.161Z,11.58
2018-11-02T11:04:35.092Z,11.58
2018-11-02T11:05:43.735Z,11.58
2018-11-02T11:06:52.380Z,11.55
2018-11-02T11:08:01.016Z,11.49
2018-11-02T11:09:09.657Z,11.55
2018-11-02T11:10:18.300Z,11.56
2018-11-02T11:11:27.239Z,11.33
2018-11-02T11:12:36.468Z,11.38
2018-11-02T11:13:45.426Z,11.34
2018-11-02T11:14:53.508Z,11.38
2018-11-02T11:16:02.425Z,11.3
2018-11-02T11:17:11.338Z,11.22
2018-11-02T11:18:19.979Z,11.25
2018-11-02T11:19:28.618Z,11.3
2018-11-02T11:20:37.265Z,11.22
2018-11-02T11:21:45.905Z,11.23
2018-11-02T11:22:54.547Z,11.23
2018-11-02T11:24:03.185Z,11.22
2018-11-02T11:25:11.825Z,11.25
2018-11-02T11:26:20.471Z,11.34
2018-11-02T11:27:29.423Z,11.33
2018-11-02T11:28:38.024Z,11.31
2018-11-02T11:29:46.663Z,11.27
2018-11-02T11:30:55.317Z,11.26
2018-11-02T11:32:03.952Z,11.33
2018-11-02T11:33:12.898Z,11.2
2018-11-02T11:34:21.557Z,11.22
2018-11-02T11:35:30.474Z,11.15
2018-11-02T11:36:39.113Z,11.16
2018-11-02T11:37:47.813Z,11.15
2018-11-02T11:38:57.016Z,11.1
2018-11-02T11:40:05.935Z,11.13
2018-11-02T11:41:14.577Z,11.1
2018-11-02T11:42:23.214Z,11.04
2018-11-02T11:43:31.855Z,11.04
2018-11-02T11:44:40.487Z,11.05
2018-11-02T11:45:49.409Z,11.05
2018-11-02T11:46:58.049Z,10.94
2018-11-02T11:48:06.695Z,10.97
2018-11-02T11:49:15.704Z,11.07
2018-11-02T11:50:24.249Z,11.1
2018-11-02T11:51:32.890Z,11.12
2018-11-02T11:52:41.535Z,11.08
2018-11-02T11:53:50.214Z,11.19
2018-11-02T11:54:58.817Z,11.31
2018-11-02T11:56:07.456Z,11.25
2018-11-02T11:57:16.285Z,11.3
2018-11-02T11:58:25.007Z,11.35
2018-11-02T11:59:33.647Z,11.44
2018-11-02T12:00:42.369Z,11.43
2018-11-02T12:01:51.304Z,11.48
2018-11-02T12:03:00.219Z,11.52
2018-11-02T12:04:08.967Z,11.59
2018-11-02T12:05:17.565Z,11.68
2018-11-02T12:06:27.097Z,11.71
2018-11-02T12:07:35.901Z,11.81
2018-11-02T12:08:44.476Z,11.73
2018-11-02T12:09:53.386Z,11.74
2018-11-02T12:11:02.092Z,11.83
2018-11-02T12:12:11.165Z,11.7
2018-11-02T12:13:20.254Z,11.8
2018-11-02T12:14:28.905Z,11.8
2018-11-02T12:15:37.651Z,11.8
2018-11-02T12:16:46.292Z,11.71
2018-11-02T12:17:55.649Z,11.74
2018-11-02T12:19:04.404Z,11.81
2018-11-02T12:20:13.064Z,11.77
2018-11-02T12:21:21.804Z,11.68
2018-11-02T12:22:30.445Z,11.68
2018-11-02T12:23:39.105Z,11.7
2018-11-02T12:24:47.850Z,11.63
2018-11-02T12:25:56.570Z,11.63
2018-11-02T12:27:05.299Z,11.52
2018-11-02T12:28:14.448Z,11.52
2018-11-02T12:29:23.152Z,11.49
2018-11-02T12:30:32.193Z,11.56
2018-11-02T12:31:40.784Z,11.53
2018-11-02T12:32:49.428Z,11.52
2018-11-02T12:33:58.065Z,11.53
2018-11-02T12:35:06.979Z,11.63
2018-11-02T12:36:15.622Z,11.7
2018-11-02T12:37:24.269Z,11.67
2018-11-02T12:38:32.917Z,11.8
2018-11-02T12:39:41.552Z,11.8
2018-11-02T12:40:50.466Z,11.91
2018-11-02T12:41:59.111Z,11.97
2018-11-02T12:43:07.776Z,12.03
2018-11-02T12:44:16.401Z,12
2018-11-02T12:45:25.042Z,11.97
2018-11-02T12:46:33.687Z,11.91
2018-11-02T12:47:42.409Z,11.86
2018-11-02T12:48:51.216Z,11.95
2018-11-02T12:50:00.042Z,11.91
2018-11-02T12:51:08.876Z,11.85
2018-11-02T12:52:17.523Z,11.81
2018-11-02T12:53:26.162Z,11.76
2018-11-02T12:54:34.804Z,11.71
2018-11-02T12:55:43.716Z,11.78
2018-11-02T12:56:52.630Z,11.74
2018-11-02T12:58:01.564Z,11.59
2018-11-02T12:59:10.208Z,11.59
2018-11-02T13:00:18.857Z,11.55
2018-11-02T13:01:27.495Z,11.53
2018-11-02T13:02:36.146Z,11.33
2018-11-02T13:03:44.784Z,11.35
2018-11-02T13:04:53.434Z,11.31
2018-11-02T13:06:02.068Z,11.26
2018-11-02T13:07:10.758Z,11.3
2018-11-02T13:08:20.229Z,11.19
2018-11-02T13:09:29.323Z,11.12
2018-11-02T13:10:37.892Z,11.12
2018-11-02T13:11:46.537Z,11.01
2018-11-02T13:12:55.183Z,10.97
2018-11-02T13:14:03.840Z,11
2018-11-02T13:15:12.757Z,10.97
2018-11-02T13:16:21.391Z,10.98
2018-11-02T13:17:30.046Z,11.12
2018-11-02T13:18:38.991Z,11.07
2018-11-02T13:19:47.603Z,11.1
2018-11-02T13:20:56.236Z,11.1
2018-11-02T13:22:04.887Z,11.13
2018-11-02T13:23:13.793Z,11.19
2018-11-02T13:24:22.714Z,11.13
2018-11-02T13:25:31.927Z,11.1
2018-11-02T13:26:40.527Z,11.07
2018-11-02T13:27:49.514Z,11.04
2018-11-02T13:28:58.701Z,11.01
2018-11-02T13:30:07.499Z,10.97
2018-11-02T13:31:16.929Z,10.97
2018-11-02T13:32:25.533Z,11.01
2018-11-02T13:33:34.171Z,11
2018-11-02T13:34:42.841Z,11.04
2018-11-02T13:35:51.459Z,10.98
2018-11-02T13:37:00.143Z,10.98
2018-11-02T13:38:09.129Z,11.01
2018-11-02T13:39:17.779Z,10.98
2018-11-02T13:40:26.459Z,10.95
2018-11-02T13:41:35.412Z,11.02
2018-11-02T13:42:44.349Z,11.04
2018-11-02T13:43:52.971Z,11.02
2018-11-02T13:45:01.892Z,10.97
2018-11-02T13:46:10.817Z,11.04
2018-11-02T13:47:19.720Z,11
2018-11-02T13:48:28.407Z,11.01
2018-11-02T13:49:37.012Z,10.98
2018-11-02T13:50:45.656Z,10.89
2018-11-02T13:51:54.306Z,10.87
2018-11-02T13:53:03.225Z,10.89
2018-11-02T13:54:11.869Z,10.84
2018-11-02T13:55:20.511Z,10.94
2018-11-02T13:56:29.454Z,10.83
2018-11-02T13:57:38.087Z,10.86
2018-11-02T13:58:46.770Z,10.82
2018-11-02T13:59:55.437Z,10.76
2018-11-02T14:01:04.458Z,10.86
2018-11-02T14:02:13.036Z,10.86
2018-11-02T14:03:21.960Z,10.84
2018-11-02T14:04:31.021Z,10.9
2018-11-02T14:05:39.671Z,10.9
2018-11-02T14:06:48.309Z,10.84
2018-11-02T14:07:56.946Z,10.86
2018-11-02T14:09:05.585Z,10.92
2018-11-02T14:10:14.225Z,10.9
2018-11-02T14:11:22.971Z,10.92
2018-11-02T14:12:31.868Z,10.9
2018-11-02T14:13:40.510Z,10.89
2018-11-02T14:14:49.141Z,10.95
2018-11-02T14:15:58.070Z,10.95
2018-11-02T14:17:06.973Z,10.95
2018-11-02T14:18:15.644Z,11.01
2018-11-02T14:19:25.094Z,11.08
2018-11-02T14:20:33.745Z,11.12
2018-11-02T14:21:42.661Z,11.04
2018-11-02T14:22:51.309Z,11.02
2018-11-02T14:23:59.936Z,11.1
2018-11-02T14:25:08.580Z,11.07
2018-11-02T14:26:17.226Z,11.04
2018-11-02T14:27:26.495Z,11.05
2018-11-02T14:28:35.139Z,11.04
2018-11-02T14:29:44.555Z,11.04
2018-11-02T14:30:53.203Z,11.01
2018-11-02T14:32:01.838Z,11
2018-11-02T14:33:10.490Z,11.05
2018-11-02T14:34:19.124Z,11
2018-11-02T14:35:28.042Z,11.04
2018-11-02T14:36:36.954Z,10.9
2018-11-02T14:37:45.887Z,10.84
2018-11-02T14:38:54.793Z,10.79
2018-11-02T14:40:03.438Z,10.9
2018-11-02T14:41:12.136Z,10.83
2018-11-02T14:42:20.728Z,10.76
2018-11-02T14:43:29.365Z,10.77
2018-11-02T14:44:38.002Z,10.71
2018-11-02T14:45:46.642Z,10.69
2018-11-02T14:46:55.281Z,10.77
2018-11-02T14:48:03.935Z,10.69
2018-11-02T14:49:12.840Z,10.77
2018-11-02T14:50:21.488Z,10.82